aviador You're here:

EPWA Decoded Metar

WARSAW in POLAND
Report Time2018-07-20 20:00:00
UTC Time2018-07-20 20:08:45
Flight Rules vfr VFR
Wind270° at 04 kt
W.Decomp.*RWY 29: 3.6 kt HW 1.7 kt LCW
RWY 33: 1.7 kt HW 3.6 kt LCW
W.Rank270° ranks 1
Current wind is below 270° avg. (8.4)
Visibility9999 m
Phenomena:N/A
Clouds:N/A
Expected CloudBase > 800 ft AGL from Temp-Dew spread
CeilingNone
Temp20°C (ISA +6)
Dew Point18°C (88% RH)
QNH1011 hPa
Density Alt1,358 ft
Elevation351 ft
Report Wrong Elevation
Raw Report
METAR EPWA 202000Z 27004KT CAVOK 20/18 Q1011 NOSIG=

Extra information for EPWA:More info

Metar Taf Metar & Taf Last 4 Metars F.Rules Stats Wind Profile Meteogram Temp Stats Airport Information Weather charts Add Link Nearby VenuesMetar ALERT Operation Metar Decoded Social comments